メインページ
METAR-TAF:

METAR-TAF

空港 :

マデイラ空港

フンシャル, マデイラ諸島, ポルトガル

緯度: 32-41-52N, 経度: 016-46-28W, 海抜: 59m

現時点の気象観測

当レポートは19分前の10:30(UTC)に作成
変向風 9kt
気温 20°C
湿度 60%
気圧 1017 hPa
視程10km以上
高度1800ftの雲はほとんどない

METAR: LPMA 211030Z VRB09KT 9999 FEW018 20/12 Q1017

時間: 11:49 (10:49 UTC)

予報

当レポートは5時間49分前の05:00(UTC)に作成
予報は21日の 06時(UTC)から 22日の 06時(UTC)まで有効
変向風 5kt
視程10km以上
高度1600ftの雲は散在している
21日の 06時(UTC)から 21日の 18時(UTC)まで一時的に
高度1500ftの雲は散在している
高度3000ftの千切れ雲あり
確率 40%
21日の 09時(UTC)から 21日の 20時(UTC)まで
南/南西の風 8kt
21日の 18時(UTC)から 21日の 20時(UTC)まで徐々に
高度1500ftの千切れ雲あり
21日の 20時(UTC)から 21日の 24時(UTC)まで一時的に
視程: 6000m
高度800ftの雲は散在している
高度1300ftの千切れ雲あり
小雨, 霧雨
22日の 00時(UTC)から 22日の 02時(UTC)まで徐々に
の風 8kt

TAF: LPMA 210500Z 2106/2206 VRB05KT 9999 SCT016 TEMPO 2106/2118 SCT015 BKN030 PROB40 2109/2120 20008KT BECMG 2118/2120 BKN015 TEMPO 2120/2124 6000 -RADZ SCT008 BKN013 BECMG 2200/2202 35008KT

4,000以上の空港の気象観測と天気予報(METAR報とTAF報)

利用可能な観測所は地図上に黄色い丸と赤い丸で示す。

丸の上にカーソルを重ねると観測所名を参照できる。

次にクリックすると気象観測と天気予報を参照できる。

マップの切り替え:黒色「×」印の緑ボタンをクリックして拡大、「-」印の緑ボタンをクリックして縮小、緑色の三角印をクリックして隣りの地図に切り替え


METAR-TAF: